sensor_id;sensor_type;location;lat;lon;timestamp;temperature;humidity
49413;DHT22;35493;50.276;9.372;2023-05-29T00:00:03;15.40;67.50
49413;DHT22;35493;50.276;9.372;2023-05-29T00:02:37;15.30;67.50
49413;DHT22;35493;50.276;9.372;2023-05-29T00:05:04;15.30;67.50
49413;DHT22;35493;50.276;9.372;2023-05-29T00:07:32;15.20;67.80
49413;DHT22;35493;50.276;9.372;2023-05-29T00:09:59;15.20;67.90
49413;DHT22;35493;50.276;9.372;2023-05-29T00:12:26;15.10;68.00
49413;DHT22;35493;50.276;9.372;2023-05-29T00:14:52;15.10;68.00
49413;DHT22;35493;50.276;9.372;2023-05-29T00:17:19;15.10;68.10
49413;DHT22;35493;50.276;9.372;2023-05-29T00:19:48;15.00;68.20
49413;DHT22;35493;50.276;9.372;2023-05-29T00:22:15;15.00;68.30
49413;DHT22;35493;50.276;9.372;2023-05-29T00:24:42;14.90;68.40
49413;DHT22;35493;50.276;9.372;2023-05-29T00:27:09;14.90;68.60
49413;DHT22;35493;50.276;9.372;2023-05-29T00:29:36;14.80;68.90
49413;DHT22;35493;50.276;9.372;2023-05-29T00:32:06;14.80;69.00
49413;DHT22;35493;50.276;9.372;2023-05-29T00:34:33;14.80;69.00
49413;DHT22;35493;50.276;9.372;2023-05-29T00:37:01;14.70;68.90
49413;DHT22;35493;50.276;9.372;2023-05-29T00:39:28;14.70;69.10
49413;DHT22;35493;50.276;9.372;2023-05-29T00:41:56;14.60;69.30
49413;DHT22;35493;50.276;9.372;2023-05-29T00:44:23;14.60;69.30
49413;DHT22;35493;50.276;9.372;2023-05-29T00:46:52;14.60;69.40
49413;DHT22;35493;50.276;9.372;2023-05-29T00:49:20;14.60;69.50
49413;DHT22;35493;50.276;9.372;2023-05-29T00:51:48;14.60;69.50
49413;DHT22;35493;50.276;9.372;2023-05-29T00:54:21;14.60;69.40
49413;DHT22;35493;50.276;9.372;2023-05-29T00:56:48;14.60;69.10
49413;DHT22;35493;50.276;9.372;2023-05-29T00:59:15;14.60;69.30
49413;DHT22;35493;50.276;9.372;2023-05-29T01:01:44;14.50;69.40
49413;DHT22;35493;50.276;9.372;2023-05-29T01:04:11;14.60;69.20
49413;DHT22;35493;50.276;9.372;2023-05-29T01:06:40;14.60;69.10
49413;DHT22;35493;50.276;9.372;2023-05-29T01:09:07;14.50;69.10
49413;DHT22;35493;50.276;9.372;2023-05-29T01:11:48;14.60;68.70
49413;DHT22;35493;50.276;9.372;2023-05-29T01:14:22;14.60;68.60
49413;DHT22;35493;50.276;9.372;2023-05-29T01:16:55;14.50;68.90
49413;DHT22;35493;50.276;9.372;2023-05-29T01:19:40;14.30;69.30
49413;DHT22;35493;50.276;9.372;2023-05-29T01:22:12;14.20;69.70
49413;DHT22;35493;50.276;9.372;2023-05-29T01:24:49;14.20;69.70
49413;DHT22;35493;50.276;9.372;2023-05-29T01:27:21;14.30;69.40
49413;DHT22;35493;50.276;9.372;2023-05-29T01:29:51;14.20;69.50
49413;DHT22;35493;50.276;9.372;2023-05-29T01:32:20;14.10;69.80
49413;DHT22;35493;50.276;9.372;2023-05-29T01:34:48;14.10;70.20
49413;DHT22;35493;50.276;9.372;2023-05-29T01:37:15;14.10;70.30
49413;DHT22;35493;50.276;9.372;2023-05-29T01:39:41;14.00;70.40
49413;DHT22;35493;50.276;9.372;2023-05-29T01:42:09;14.10;70.10
49413;DHT22;35493;50.276;9.372;2023-05-29T01:44:38;14.10;70.10
49413;DHT22;35493;50.276;9.372;2023-05-29T01:47:05;14.00;70.20
49413;DHT22;35493;50.276;9.372;2023-05-29T01:49:34;13.90;70.40
49413;DHT22;35493;50.276;9.372;2023-05-29T01:52:03;13.90;70.50
49413;DHT22;35493;50.276;9.372;2023-05-29T01:54:30;13.90;70.50
49413;DHT22;35493;50.276;9.372;2023-05-29T01:56:57;13.90;70.20
49413;DHT22;35493;50.276;9.372;2023-05-29T01:59:25;13.90;70.30
49413;DHT22;35493;50.276;9.372;2023-05-29T02:01:53;13.90;70.30
49413;DHT22;35493;50.276;9.372;2023-05-29T02:04:20;13.90;70.20
49413;DHT22;35493;50.276;9.372;2023-05-29T02:06:47;14.00;69.70
49413;DHT22;35493;50.276;9.372;2023-05-29T02:09:16;14.00;69.60
49413;DHT22;35493;50.276;9.372;2023-05-29T02:11:43;13.90;70.10
49413;DHT22;35493;50.276;9.372;2023-05-29T02:14:11;13.80;70.20
49413;DHT22;35493;50.276;9.372;2023-05-29T02:16:38;13.80;70.50
49413;DHT22;35493;50.276;9.372;2023-05-29T02:19:07;13.70;70.80
49413;DHT22;35493;50.276;9.372;2023-05-29T02:21:37;13.60;71.00
49413;DHT22;35493;50.276;9.372;2023-05-29T02:24:05;13.60;71.30
49413;DHT22;35493;50.276;9.372;2023-05-29T02:26:33;13.50;71.50
49413;DHT22;35493;50.276;9.372;2023-05-29T02:29:02;13.50;71.70
49413;DHT22;35493;50.276;9.372;2023-05-29T02:31:31;13.40;71.70
49413;DHT22;35493;50.276;9.372;2023-05-29T02:33:58;13.40;71.80
49413;DHT22;35493;50.276;9.372;2023-05-29T02:36:26;13.40;71.90
49413;DHT22;35493;50.276;9.372;2023-05-29T02:38:53;13.30;72.00
49413;DHT22;35493;50.276;9.372;2023-05-29T02:41:20;13.30;72.10
49413;DHT22;35493;50.276;9.372;2023-05-29T02:43:50;13.20;72.10
49413;DHT22;35493;50.276;9.372;2023-05-29T02:46:17;13.20;72.00
49413;DHT22;35493;50.276;9.372;2023-05-29T02:48:44;13.20;72.10
49413;DHT22;35493;50.276;9.372;2023-05-29T02:51:11;13.10;72.40
49413;DHT22;35493;50.276;9.372;2023-05-29T02:53:40;13.10;72.50
49413;DHT22;35493;50.276;9.372;2023-05-29T02:56:07;13.10;72.70
49413;DHT22;35493;50.276;9.372;2023-05-29T02:58:34;13.10;72.90
49413;DHT22;35493;50.276;9.372;2023-05-29T03:01:01;13.00;72.90
49413;DHT22;35493;50.276;9.372;2023-05-29T03:03:29;13.00;72.90
49413;DHT22;35493;50.276;9.372;2023-05-29T03:05:57;13.00;72.90
49413;DHT22;35493;50.276;9.372;2023-05-29T03:08:24;12.90;72.90
49413;DHT22;35493;50.276;9.372;2023-05-29T03:10:54;13.00;72.50
49413;DHT22;35493;50.276;9.372;2023-05-29T03:13:22;13.00;72.20
49413;DHT22;35493;50.276;9.372;2023-05-29T03:15:55;13.10;72.10
49413;DHT22;35493;50.276;9.372;2023-05-29T03:18:23;13.10;71.80
49413;DHT22;35493;50.276;9.372;2023-05-29T03:20:50;13.10;72.10
49413;DHT22;35493;50.276;9.372;2023-05-29T03:23:17;13.00;72.40
49413;DHT22;35493;50.276;9.372;2023-05-29T03:25:44;13.00;72.40
49413;DHT22;35493;50.276;9.372;2023-05-29T03:28:12;13.00;72.50
49413;DHT22;35493;50.276;9.372;2023-05-29T03:30:39;13.00;72.50
49413;DHT22;35493;50.276;9.372;2023-05-29T03:33:06;13.00;72.40
49413;DHT22;35493;50.276;9.372;2023-05-29T03:35:54;12.90;72.60
49413;DHT22;35493;50.276;9.372;2023-05-29T03:38:22;12.80;72.80
49413;DHT22;35493;50.276;9.372;2023-05-29T03:40:53;12.80;73.10
49413;DHT22;35493;50.276;9.372;2023-05-29T03:43:21;12.80;73.30
49413;DHT22;35493;50.276;9.372;2023-05-29T03:45:48;12.70;73.40
49413;DHT22;35493;50.276;9.372;2023-05-29T03:48:15;12.70;73.40
49413;DHT22;35493;50.276;9.372;2023-05-29T03:50:45;12.70;73.40
49413;DHT22;35493;50.276;9.372;2023-05-29T03:53:14;12.70;73.50
49413;DHT22;35493;50.276;9.372;2023-05-29T03:55:41;12.70;73.50
49413;DHT22;35493;50.276;9.372;2023-05-29T03:58:08;12.70;73.50
49413;DHT22;35493;50.276;9.372;2023-05-29T04:00:42;12.70;73.60
49413;DHT22;35493;50.276;9.372;2023-05-29T04:03:10;12.60;73.70
49413;DHT22;35493;50.276;9.372;2023-05-29T04:05:40;12.70;73.80
49413;DHT22;35493;50.276;9.372;2023-05-29T04:08:09;12.60;74.00
49413;DHT22;35493;50.276;9.372;2023-05-29T04:10:36;12.60;74.10
49413;DHT22;35493;50.276;9.372;2023-05-29T04:13:05;12.60;74.10
49413;DHT22;35493;50.276;9.372;2023-05-29T04:15:32;12.60;74.10
49413;DHT22;35493;50.276;9.372;2023-05-29T04:18:01;12.60;73.80
49413;DHT22;35493;50.276;9.372;2023-05-29T04:20:28;12.70;73.70
49413;DHT22;35493;50.276;9.372;2023-05-29T04:22:56;12.70;73.90
49413;DHT22;35493;50.276;9.372;2023-05-29T04:25:23;12.70;74.10
49413;DHT22;35493;50.276;9.372;2023-05-29T04:27:50;12.70;74.00
49413;DHT22;35493;50.276;9.372;2023-05-29T04:30:22;12.70;73.90
49413;DHT22;35493;50.276;9.372;2023-05-29T04:32:49;12.80;73.80
49413;DHT22;35493;50.276;9.372;2023-05-29T04:35:19;12.90;73.10
49413;DHT22;35493;50.276;9.372;2023-05-29T04:37:57;12.90;73.10
49413;DHT22;35493;50.276;9.372;2023-05-29T04:40:29;12.90;72.80
49413;DHT22;35493;50.276;9.372;2023-05-29T04:42:57;12.90;73.00
49413;DHT22;35493;50.276;9.372;2023-05-29T04:45:27;13.00;73.00
49413;DHT22;35493;50.276;9.372;2023-05-29T04:47:55;13.00;73.00
49413;DHT22;35493;50.276;9.372;2023-05-29T04:50:24;13.10;72.80
49413;DHT22;35493;50.276;9.372;2023-05-29T04:52:52;13.10;73.00
49413;DHT22;35493;50.276;9.372;2023-05-29T04:55:19;13.10;72.70
49413;DHT22;35493;50.276;9.372;2023-05-29T04:57:47;13.10;72.80
49413;DHT22;35493;50.276;9.372;2023-05-29T05:00:17;13.20;72.70
49413;DHT22;35493;50.276;9.372;2023-05-29T05:02:45;13.30;72.50
49413;DHT22;35493;50.276;9.372;2023-05-29T05:05:13;13.30;72.40
49413;DHT22;35493;50.276;9.372;2023-05-29T05:07:41;13.40;72.20
49413;DHT22;35493;50.276;9.372;2023-05-29T05:10:09;13.50;72.20
49413;DHT22;35493;50.276;9.372;2023-05-29T05:12:36;13.40;72.20
49413;DHT22;35493;50.276;9.372;2023-05-29T05:15:04;13.50;72.40
49413;DHT22;35493;50.276;9.372;2023-05-29T05:17:33;13.50;72.70
49413;DHT22;35493;50.276;9.372;2023-05-29T05:20:00;13.50;72.70
49413;DHT22;35493;50.276;9.372;2023-05-29T05:22:29;13.60;72.70
49413;DHT22;35493;50.276;9.372;2023-05-29T05:24:57;13.60;72.80
49413;DHT22;35493;50.276;9.372;2023-05-29T05:27:25;13.60;72.80
49413;DHT22;35493;50.276;9.372;2023-05-29T05:29:53;13.70;72.50
49413;DHT22;35493;50.276;9.372;2023-05-29T05:32:20;13.70;72.40
49413;DHT22;35493;50.276;9.372;2023-05-29T05:34:53;13.80;72.20
49413;DHT22;35493;50.276;9.372;2023-05-29T05:37:21;13.80;72.30
49413;DHT22;35493;50.276;9.372;2023-05-29T05:39:49;13.80;72.40
49413;DHT22;35493;50.276;9.372;2023-05-29T05:42:20;13.90;72.20
49413;DHT22;35493;50.276;9.372;2023-05-29T05:44:52;14.00;72.00
49413;DHT22;35493;50.276;9.372;2023-05-29T05:47:19;14.00;72.20
49413;DHT22;35493;50.276;9.372;2023-05-29T05:49:46;14.10;72.30
49413;DHT22;35493;50.276;9.372;2023-05-29T05:52:15;14.20;72.20
49413;DHT22;35493;50.276;9.372;2023-05-29T05:54:42;14.20;71.90
49413;DHT22;35493;50.276;9.372;2023-05-29T05:57:11;14.20;71.80
49413;DHT22;35493;50.276;9.372;2023-05-29T05:59:40;14.30;71.40
49413;DHT22;35493;50.276;9.372;2023-05-29T06:02:07;14.40;71.20
49413;DHT22;35493;50.276;9.372;2023-05-29T06:04:34;14.40;71.30
49413;DHT22;35493;50.276;9.372;2023-05-29T06:07:02;14.40;71.60
49413;DHT22;35493;50.276;9.372;2023-05-29T06:09:31;14.50;71.60
49413;DHT22;35493;50.276;9.372;2023-05-29T06:11:58;14.50;71.40
49413;DHT22;35493;50.276;9.372;2023-05-29T06:14:25;14.60;71.20
49413;DHT22;35493;50.276;9.372;2023-05-29T06:16:54;14.60;71.10
49413;DHT22;35493;50.276;9.372;2023-05-29T06:19:21;14.70;71.00
49413;DHT22;35493;50.276;9.372;2023-05-29T06:21:56;14.70;70.70
49413;DHT22;35493;50.276;9.372;2023-05-29T06:24:26;14.80;70.60
49413;DHT22;35493;50.276;9.372;2023-05-29T06:26:55;14.90;70.50
49413;DHT22;35493;50.276;9.372;2023-05-29T06:29:22;15.00;70.20
49413;DHT22;35493;50.276;9.372;2023-05-29T06:31:50;15.10;69.70
49413;DHT22;35493;50.276;9.372;2023-05-29T06:34:19;15.30;69.40
49413;DHT22;35493;50.276;9.372;2023-05-29T06:36:47;15.40;68.90
49413;DHT22;35493;50.276;9.372;2023-05-29T06:39:14;15.60;68.80
49413;DHT22;35493;50.276;9.372;2023-05-29T06:41:41;15.70;68.40
49413;DHT22;35493;50.276;9.372;2023-05-29T06:44:08;15.90;67.90
49413;DHT22;35493;50.276;9.372;2023-05-29T06:46:35;16.10;67.50
49413;DHT22;35493;50.276;9.372;2023-05-29T06:49:02;16.20;67.10
49413;DHT22;35493;50.276;9.372;2023-05-29T06:51:30;16.40;66.80
49413;DHT22;35493;50.276;9.372;2023-05-29T06:54:20;16.60;66.00
49413;DHT22;35493;50.276;9.372;2023-05-29T06:56:46;16.80;65.70
49413;DHT22;35493;50.276;9.372;2023-05-29T06:59:13;16.90;65.20
49413;DHT22;35493;50.276;9.372;2023-05-29T07:01:41;17.10;65.10
49413;DHT22;35493;50.276;9.372;2023-05-29T07:04:08;17.20;65.10
49413;DHT22;35493;50.276;9.372;2023-05-29T07:06:37;17.30;64.70
49413;DHT22;35493;50.276;9.372;2023-05-29T07:09:06;17.40;64.60
49413;DHT22;35493;50.276;9.372;2023-05-29T07:11:34;17.60;64.00
49413;DHT22;35493;50.276;9.372;2023-05-29T07:14:00;17.70;63.80
49413;DHT22;35493;50.276;9.372;2023-05-29T07:16:27;17.90;63.30
49413;DHT22;35493;50.276;9.372;2023-05-29T07:19:02;18.10;62.70
49413;DHT22;35493;50.276;9.372;2023-05-29T07:21:31;18.30;62.20
49413;DHT22;35493;50.276;9.372;2023-05-29T07:24:00;18.40;62.30
49413;DHT22;35493;50.276;9.372;2023-05-29T07:26:27;18.60;61.70
49413;DHT22;35493;50.276;9.372;2023-05-29T07:28:54;18.70;61.20
49413;DHT22;35493;50.276;9.372;2023-05-29T07:31:21;19.00;60.40
49413;DHT22;35493;50.276;9.372;2023-05-29T07:33:49;19.10;60.10
49413;DHT22;35493;50.276;9.372;2023-05-29T07:36:17;19.20;59.50
49413;DHT22;35493;50.276;9.372;2023-05-29T07:38:46;19.30;59.70
49413;DHT22;35493;50.276;9.372;2023-05-29T07:41:16;19.50;59.90
49413;DHT22;35493;50.276;9.372;2023-05-29T07:43:50;19.60;59.10
49413;DHT22;35493;50.276;9.372;2023-05-29T07:46:19;19.70;59.30
49413;DHT22;35493;50.276;9.372;2023-05-29T07:48:48;19.90;59.00
49413;DHT22;35493;50.276;9.372;2023-05-29T07:51:15;20.10;59.00
49413;DHT22;35493;50.276;9.372;2023-05-29T07:53:45;20.10;58.30
49413;DHT22;35493;50.276;9.372;2023-05-29T07:56:12;20.20;57.80
49413;DHT22;35493;50.276;9.372;2023-05-29T07:58:41;20.40;58.10
49413;DHT22;35493;50.276;9.372;2023-05-29T08:01:08;20.60;57.80
49413;DHT22;35493;50.276;9.372;2023-05-29T08:03:35;20.60;57.40
49413;DHT22;35493;50.276;9.372;2023-05-29T08:06:05;20.70;57.10
49413;DHT22;35493;50.276;9.372;2023-05-29T08:08:33;20.90;56.70
49413;DHT22;35493;50.276;9.372;2023-05-29T08:11:00;21.00;56.50
49413;DHT22;35493;50.276;9.372;2023-05-29T08:13:27;21.10;56.10
49413;DHT22;35493;50.276;9.372;2023-05-29T08:15:56;21.20;56.40
49413;DHT22;35493;50.276;9.372;2023-05-29T08:18:25;21.40;56.20
49413;DHT22;35493;50.276;9.372;2023-05-29T08:20:52;21.50;55.90
49413;DHT22;35493;50.276;9.372;2023-05-29T08:23:19;21.60;55.50
49413;DHT22;35493;50.276;9.372;2023-05-29T08:25:46;21.70;54.90
49413;DHT22;35493;50.276;9.372;2023-05-29T08:28:14;21.80;54.90
49413;DHT22;35493;50.276;9.372;2023-05-29T08:30:41;22.00;54.80
49413;DHT22;35493;50.276;9.372;2023-05-29T08:33:09;22.10;54.50
49413;DHT22;35493;50.276;9.372;2023-05-29T08:35:36;22.20;53.40
49413;DHT22;35493;50.276;9.372;2023-05-29T08:38:03;22.30;52.90
49413;DHT22;35493;50.276;9.372;2023-05-29T08:40:30;22.40;53.20
49413;DHT22;35493;50.276;9.372;2023-05-29T08:42:59;22.40;53.10
49413;DHT22;35493;50.276;9.372;2023-05-29T08:45:29;22.50;52.90
49413;DHT22;35493;50.276;9.372;2023-05-29T08:47:58;22.60;52.70
49413;DHT22;35493;50.276;9.372;2023-05-29T08:50:28;22.70;52.80
49413;DHT22;35493;50.276;9.372;2023-05-29T08:52:56;22.80;52.90
49413;DHT22;35493;50.276;9.372;2023-05-29T08:55:23;23.00;51.60
49413;DHT22;35493;50.276;9.372;2023-05-29T08:57:50;23.20;50.70
49413;DHT22;35493;50.276;9.372;2023-05-29T09:00:18;23.20;51.50
49413;DHT22;35493;50.276;9.372;2023-05-29T09:02:54;23.20;51.20
49413;DHT22;35493;50.276;9.372;2023-05-29T09:05:24;23.30;51.70
49413;DHT22;35493;50.276;9.372;2023-05-29T09:07:54;23.40;50.90
49413;DHT22;35493;50.276;9.372;2023-05-29T09:10:21;23.50;50.60
49413;DHT22;35493;50.276;9.372;2023-05-29T09:12:48;23.50;50.80
49413;DHT22;35493;50.276;9.372;2023-05-29T09:15:19;23.60;50.50
49413;DHT22;35493;50.276;9.372;2023-05-29T09:17:50;23.70;50.60
49413;DHT22;35493;50.276;9.372;2023-05-29T09:20:18;23.80;50.10
49413;DHT22;35493;50.276;9.372;2023-05-29T09:22:54;24.00;49.70
49413;DHT22;35493;50.276;9.372;2023-05-29T09:25:23;24.00;49.60
49413;DHT22;35493;50.276;9.372;2023-05-29T09:27:55;24.10;49.40
49413;DHT22;35493;50.276;9.372;2023-05-29T09:30:36;24.20;49.30
49413;DHT22;35493;50.276;9.372;2023-05-29T09:33:04;24.30;49.00
49413;DHT22;35493;50.276;9.372;2023-05-29T09:35:35;24.30;48.50
49413;DHT22;35493;50.276;9.372;2023-05-29T09:38:04;24.50;48.20
49413;DHT22;35493;50.276;9.372;2023-05-29T09:40:32;24.50;47.90
49413;DHT22;35493;50.276;9.372;2023-05-29T09:43:04;24.60;47.70
49413;DHT22;35493;50.276;9.372;2023-05-29T09:45:36;24.70;47.50
49413;DHT22;35493;50.276;9.372;2023-05-29T09:48:04;24.80;47.60
49413;DHT22;35493;50.276;9.372;2023-05-29T09:50:31;24.80;47.40
49413;DHT22;35493;50.276;9.372;2023-05-29T09:52:59;24.90;47.10
49413;DHT22;35493;50.276;9.372;2023-05-29T09:55:29;25.10;46.10
49413;DHT22;35493;50.276;9.372;2023-05-29T09:57:59;25.10;45.50
49413;DHT22;35493;50.276;9.372;2023-05-29T10:00:25;25.20;45.00
49413;DHT22;35493;50.276;9.372;2023-05-29T10:02:52;25.20;45.10
49413;DHT22;35493;50.276;9.372;2023-05-29T10:05:20;25.30;44.60
49413;DHT22;35493;50.276;9.372;2023-05-29T10:07:50;25.40;44.90
49413;DHT22;35493;50.276;9.372;2023-05-29T10:10:19;25.50;44.80
49413;DHT22;35493;50.276;9.372;2023-05-29T10:12:49;25.60;44.70
49413;DHT22;35493;50.276;9.372;2023-05-29T10:15:17;25.60;43.90
49413;DHT22;35493;50.276;9.372;2023-05-29T10:17:50;25.70;43.00
49413;DHT22;35493;50.276;9.372;2023-05-29T10:20:17;25.80;42.70
49413;DHT22;35493;50.276;9.372;2023-05-29T10:22:49;25.80;42.50
49413;DHT22;35493;50.276;9.372;2023-05-29T10:25:19;25.90;41.50
49413;DHT22;35493;50.276;9.372;2023-05-29T10:27:48;26.00;41.60
49413;DHT22;35493;50.276;9.372;2023-05-29T10:30:24;26.00;41.80
49413;DHT22;35493;50.276;9.372;2023-05-29T10:33:31;26.10;41.70
49413;DHT22;35493;50.276;9.372;2023-05-29T10:36:04;26.10;41.50
49413;DHT22;35493;50.276;9.372;2023-05-29T10:38:34;26.20;41.50
49413;DHT22;35493;50.276;9.372;2023-05-29T10:41:28;26.30;40.80
49413;DHT22;35493;50.276;9.372;2023-05-29T10:43:57;26.40;40.90
49413;DHT22;35493;50.276;9.372;2023-05-29T10:49:15;26.40;40.30
49413;DHT22;35493;50.276;9.372;2023-05-29T10:51:43;26.50;40.10
49413;DHT22;35493;50.276;9.372;2023-05-29T10:54:10;26.50;39.60
49413;DHT22;35493;50.276;9.372;2023-05-29T10:56:37;26.50;39.70
49413;DHT22;35493;50.276;9.372;2023-05-29T10:59:07;26.60;39.10
49413;DHT22;35493;50.276;9.372;2023-05-29T11:01:38;26.60;39.10
49413;DHT22;35493;50.276;9.372;2023-05-29T11:04:27;26.70;39.40
49413;DHT22;35493;50.276;9.372;2023-05-29T11:06:57;26.70;38.70
49413;DHT22;35493;50.276;9.372;2023-05-29T11:09:29;26.80;38.30
49413;DHT22;35493;50.276;9.372;2023-05-29T11:12:26;26.80;38.20
49413;DHT22;35493;50.276;9.372;2023-05-29T11:15:05;26.90;37.70
49413;DHT22;35493;50.276;9.372;2023-05-29T11:17:43;27.00;37.40
49413;DHT22;35493;50.276;9.372;2023-05-29T11:20:18;26.90;37.80
49413;DHT22;35493;50.276;9.372;2023-05-29T11:23:00;27.00;38.40
49413;DHT22;35493;50.276;9.372;2023-05-29T11:25:27;27.10;37.80
49413;DHT22;35493;50.276;9.372;2023-05-29T11:27:55;27.10;37.70
49413;DHT22;35493;50.276;9.372;2023-05-29T11:30:24;27.10;37.60
49413;DHT22;35493;50.276;9.372;2023-05-29T11:32:52;27.20;38.20
49413;DHT22;35493;50.276;9.372;2023-05-29T11:35:22;27.10;37.80
49413;DHT22;35493;50.276;9.372;2023-05-29T11:37:49;27.20;37.50
49413;DHT22;35493;50.276;9.372;2023-05-29T11:40:16;27.20;37.40
49413;DHT22;35493;50.276;9.372;2023-05-29T11:42:44;27.20;38.00
49413;DHT22;35493;50.276;9.372;2023-05-29T11:45:15;27.20;38.20
49413;DHT22;35493;50.276;9.372;2023-05-29T11:47:54;27.20;37.90
49413;DHT22;35493;50.276;9.372;2023-05-29T11:50:21;27.10;38.00
49413;DHT22;35493;50.276;9.372;2023-05-29T11:52:48;27.30;37.30
49413;DHT22;35493;50.276;9.372;2023-05-29T11:55:17;27.30;37.30
49413;DHT22;35493;50.276;9.372;2023-05-29T11:57:45;27.40;36.90
49413;DHT22;35493;50.276;9.372;2023-05-29T12:00:13;27.40;37.00
49413;DHT22;35493;50.276;9.372;2023-05-29T12:02:41;27.40;37.00
49413;DHT22;35493;50.276;9.372;2023-05-29T12:05:10;27.40;37.10
49413;DHT22;35493;50.276;9.372;2023-05-29T12:07:49;27.40;37.20
49413;DHT22;35493;50.276;9.372;2023-05-29T12:10:18;27.40;36.90
49413;DHT22;35493;50.276;9.372;2023-05-29T12:12:46;27.30;37.50
49413;DHT22;35493;50.276;9.372;2023-05-29T12:15:14;27.30;37.50
49413;DHT22;35493;50.276;9.372;2023-05-29T12:17:41;27.40;36.90
49413;DHT22;35493;50.276;9.372;2023-05-29T12:20:11;27.40;36.60
49413;DHT22;35493;50.276;9.372;2023-05-29T12:22:38;27.40;36.50
49413;DHT22;35493;50.276;9.372;2023-05-29T12:25:07;27.40;36.30
49413;DHT22;35493;50.276;9.372;2023-05-29T12:27:36;27.30;36.70
49413;DHT22;35493;50.276;9.372;2023-05-29T12:30:08;27.30;36.80
49413;DHT22;35493;50.276;9.372;2023-05-29T12:32:37;27.40;36.80
49413;DHT22;35493;50.276;9.372;2023-05-29T12:35:13;27.30;36.90
49413;DHT22;35493;50.276;9.372;2023-05-29T12:37:44;27.30;36.80
49413;DHT22;35493;50.276;9.372;2023-05-29T12:40:15;27.20;37.10
49413;DHT22;35493;50.276;9.372;2023-05-29T12:42:43;27.30;37.80
49413;DHT22;35493;50.276;9.372;2023-05-29T12:45:11;27.30;37.90
49413;DHT22;35493;50.276;9.372;2023-05-29T12:47:37;27.30;37.20
49413;DHT22;35493;50.276;9.372;2023-05-29T12:53:01;27.20;36.70
49413;DHT22;35493;50.276;9.372;2023-05-29T12:55:29;27.10;36.50
49413;DHT22;35493;50.276;9.372;2023-05-29T12:57:59;27.10;36.30
49413;DHT22;35493;50.276;9.372;2023-05-29T13:00:26;27.10;36.60
49413;DHT22;35493;50.276;9.372;2023-05-29T13:02:53;27.00;36.40
49413;DHT22;35493;50.276;9.372;2023-05-29T13:05:19;27.00;36.70
49413;DHT22;35493;50.276;9.372;2023-05-29T13:07:49;26.90;36.30
49413;DHT22;35493;50.276;9.372;2023-05-29T13:10:18;27.00;37.00
49413;DHT22;35493;50.276;9.372;2023-05-29T13:12:45;27.00;36.10
49413;DHT22;35493;50.276;9.372;2023-05-29T13:15:13;26.90;36.00
49413;DHT22;35493;50.276;9.372;2023-05-29T13:17:40;26.90;35.90
49413;DHT22;35493;50.276;9.372;2023-05-29T13:20:09;27.00;36.30
49413;DHT22;35493;50.276;9.372;2023-05-29T13:22:37;26.90;35.80
49413;DHT22;35493;50.276;9.372;2023-05-29T13:25:05;26.90;35.70
49413;DHT22;35493;50.276;9.372;2023-05-29T13:27:34;26.90;36.90
49413;DHT22;35493;50.276;9.372;2023-05-29T13:30:02;26.80;35.90
49413;DHT22;35493;50.276;9.372;2023-05-29T13:32:28;26.80;36.00
49413;DHT22;35493;50.276;9.372;2023-05-29T13:34:56;26.90;35.50
49413;DHT22;35493;50.276;9.372;2023-05-29T13:37:23;26.90;36.00
49413;DHT22;35493;50.276;9.372;2023-05-29T13:39:50;27.00;36.20
49413;DHT22;35493;50.276;9.372;2023-05-29T13:42:18;26.90;36.50
49413;DHT22;35493;50.276;9.372;2023-05-29T13:44:47;26.80;36.40
49413;DHT22;35493;50.276;9.372;2023-05-29T13:47:14;26.80;36.60
49413;DHT22;35493;50.276;9.372;2023-05-29T13:49:41;26.80;36.50
49413;DHT22;35493;50.276;9.372;2023-05-29T13:52:08;26.70;36.50
49413;DHT22;35493;50.276;9.372;2023-05-29T13:54:35;26.70;36.80
49413;DHT22;35493;50.276;9.372;2023-05-29T13:57:02;26.60;37.00
49413;DHT22;35493;50.276;9.372;2023-05-29T13:59:29;26.60;37.20
49413;DHT22;35493;50.276;9.372;2023-05-29T14:01:58;26.50;36.90
49413;DHT22;35493;50.276;9.372;2023-05-29T14:04:25;26.50;36.50
49413;DHT22;35493;50.276;9.372;2023-05-29T14:06:52;26.50;36.10
49413;DHT22;35493;50.276;9.372;2023-05-29T14:09:20;26.40;36.90
49413;DHT22;35493;50.276;9.372;2023-05-29T14:11:53;26.30;36.80
49413;DHT22;35493;50.276;9.372;2023-05-29T14:14:20;26.30;36.60
49413;DHT22;35493;50.276;9.372;2023-05-29T14:16:47;26.30;36.40
49413;DHT22;35493;50.276;9.372;2023-05-29T14:19:16;26.30;35.30
49413;DHT22;35493;50.276;9.372;2023-05-29T14:21:43;26.30;35.90
49413;DHT22;35493;50.276;9.372;2023-05-29T14:24:10;26.20;36.30
49413;DHT22;35493;50.276;9.372;2023-05-29T14:26:37;26.20;36.60
49413;DHT22;35493;50.276;9.372;2023-05-29T14:29:04;26.10;37.00
49413;DHT22;35493;50.276;9.372;2023-05-29T14:31:31;26.10;37.60
49413;DHT22;35493;50.276;9.372;2023-05-29T14:33:58;26.10;37.60
49413;DHT22;35493;50.276;9.372;2023-05-29T14:36:26;26.10;38.20
49413;DHT22;35493;50.276;9.372;2023-05-29T14:38:53;26.10;38.50
49413;DHT22;35493;50.276;9.372;2023-05-29T14:41:20;26.10;38.70
49413;DHT22;35493;50.276;9.372;2023-05-29T14:43:47;26.00;38.50
49413;DHT22;35493;50.276;9.372;2023-05-29T14:46:15;26.10;38.20
49413;DHT22;35493;50.276;9.372;2023-05-29T14:48:42;26.00;38.40
49413;DHT22;35493;50.276;9.372;2023-05-29T14:51:08;26.00;38.10
49413;DHT22;35493;50.276;9.372;2023-05-29T14:53:37;26.10;37.90
49413;DHT22;35493;50.276;9.372;2023-05-29T14:56:05;26.00;38.30
49413;DHT22;35493;50.276;9.372;2023-05-29T14:58:32;26.00;38.40
49413;DHT22;35493;50.276;9.372;2023-05-29T15:00:59;25.90;38.60
49413;DHT22;35493;50.276;9.372;2023-05-29T15:03:26;25.90;39.20
49413;DHT22;35493;50.276;9.372;2023-05-29T15:05:54;25.90;38.70
49413;DHT22;35493;50.276;9.372;2023-05-29T15:08:21;25.90;39.20
49413;DHT22;35493;50.276;9.372;2023-05-29T15:10:49;25.90;39.10
49413;DHT22;35493;50.276;9.372;2023-05-29T15:13:16;25.80;39.30
49413;DHT22;35493;50.276;9.372;2023-05-29T15:15:43;25.70;39.20
49413;DHT22;35493;50.276;9.372;2023-05-29T15:18:10;25.70;39.20
49413;DHT22;35493;50.276;9.372;2023-05-29T15:20:37;25.60;39.00
49413;DHT22;35493;50.276;9.372;2023-05-29T15:23:04;25.60;39.10
49413;DHT22;35493;50.276;9.372;2023-05-29T15:25:30;25.60;39.10
49413;DHT22;35493;50.276;9.372;2023-05-29T15:27:59;25.50;39.10
49413;DHT22;35493;50.276;9.372;2023-05-29T15:30:26;25.50;39.20
49413;DHT22;35493;50.276;9.372;2023-05-29T15:32:53;25.60;39.20
49413;DHT22;35493;50.276;9.372;2023-05-29T15:35:20;25.50;38.70
49413;DHT22;35493;50.276;9.372;2023-05-29T15:37:47;25.50;39.00
49413;DHT22;35493;50.276;9.372;2023-05-29T15:40:14;25.30;39.10
49413;DHT22;35493;50.276;9.372;2023-05-29T15:42:41;25.40;39.20
49413;DHT22;35493;50.276;9.372;2023-05-29T15:45:10;25.40;39.00